sensor_id;sensor_type;location;lat;lon;timestamp;P1;durP1;ratioP1;P2;durP2;ratioP2
20935;SDS011;10627;54.514;18.532;2023-04-15T00:00:54;30.00;;;15.97;;
20935;SDS011;10627;54.514;18.532;2023-04-15T00:06:15;28.17;;;16.43;;
20935;SDS011;10627;54.514;18.532;2023-04-15T00:11:36;29.07;;;17.53;;
20935;SDS011;10627;54.514;18.532;2023-04-15T00:16:57;25.60;;;16.57;;
20935;SDS011;10627;54.514;18.532;2023-04-15T00:22:18;25.20;;;17.23;;
20935;SDS011;10627;54.514;18.532;2023-04-15T00:27:39;27.57;;;17.13;;
20935;SDS011;10627;54.514;18.532;2023-04-15T00:33:00;28.43;;;17.97;;
20935;SDS011;10627;54.514;18.532;2023-04-15T00:38:24;26.37;;;17.60;;
20935;SDS011;10627;54.514;18.532;2023-04-15T00:43:45;26.00;;;16.67;;
20935;SDS011;10627;54.514;18.532;2023-04-15T00:49:06;28.17;;;15.93;;
20935;SDS011;10627;54.514;18.532;2023-04-15T00:54:27;27.83;;;16.43;;
20935;SDS011;10627;54.514;18.532;2023-04-15T00:59:48;25.50;;;15.87;;
20935;SDS011;10627;54.514;18.532;2023-04-15T01:05:09;28.23;;;17.13;;
20935;SDS011;10627;54.514;18.532;2023-04-15T01:10:31;33.17;;;16.80;;
20935;SDS011;10627;54.514;18.532;2023-04-15T01:15:52;29.63;;;16.07;;
20935;SDS011;10627;54.514;18.532;2023-04-15T01:21:13;26.77;;;16.13;;
20935;SDS011;10627;54.514;18.532;2023-04-15T01:26:37;23.53;;;15.70;;
20935;SDS011;10627;54.514;18.532;2023-04-15T01:32:01;24.97;;;15.30;;
20935;SDS011;10627;54.514;18.532;2023-04-15T01:37:22;25.03;;;14.97;;
20935;SDS011;10627;54.514;18.532;2023-04-15T01:42:44;22.57;;;14.20;;
20935;SDS011;10627;54.514;18.532;2023-04-15T01:48:06;24.30;;;14.87;;
20935;SDS011;10627;54.514;18.532;2023-04-15T01:53:31;24.57;;;14.57;;
20935;SDS011;10627;54.514;18.532;2023-04-15T01:58:52;20.63;;;13.23;;
20935;SDS011;10627;54.514;18.532;2023-04-15T02:04:13;21.77;;;13.30;;
20935;SDS011;10627;54.514;18.532;2023-04-15T02:09:36;25.57;;;15.00;;
20935;SDS011;10627;54.514;18.532;2023-04-15T02:14:58;22.73;;;14.73;;
20935;SDS011;10627;54.514;18.532;2023-04-15T02:20:19;27.07;;;13.73;;
20935;SDS011;10627;54.514;18.532;2023-04-15T02:25:40;23.90;;;13.87;;
20935;SDS011;10627;54.514;18.532;2023-04-15T02:31:05;26.03;;;14.20;;
20935;SDS011;10627;54.514;18.532;2023-04-15T02:36:26;20.50;;;13.23;;
20935;SDS011;10627;54.514;18.532;2023-04-15T02:41:49;19.97;;;12.97;;
20935;SDS011;10627;54.514;18.532;2023-04-15T02:47:13;23.23;;;12.90;;
20935;SDS011;10627;54.514;18.532;2023-04-15T02:52:36;24.30;;;13.27;;
20935;SDS011;10627;54.514;18.532;2023-04-15T02:57:57;17.87;;;12.57;;
20935;SDS011;10627;54.514;18.532;2023-04-15T03:03:19;22.47;;;12.93;;
20935;SDS011;10627;54.514;18.532;2023-04-15T03:08:40;22.17;;;13.07;;
20935;SDS011;10627;54.514;18.532;2023-04-15T03:14:02;20.77;;;13.50;;
20935;SDS011;10627;54.514;18.532;2023-04-15T03:19:27;24.53;;;14.07;;
20935;SDS011;10627;54.514;18.532;2023-04-15T03:24:48;28.33;;;14.40;;
20935;SDS011;10627;54.514;18.532;2023-04-15T03:30:10;26.97;;;14.37;;
20935;SDS011;10627;54.514;18.532;2023-04-15T03:35:33;23.77;;;14.03;;
20935;SDS011;10627;54.514;18.532;2023-04-15T03:40:55;25.43;;;15.00;;
20935;SDS011;10627;54.514;18.532;2023-04-15T03:46:16;25.80;;;15.67;;
20935;SDS011;10627;54.514;18.532;2023-04-15T03:51:38;23.93;;;15.80;;
20935;SDS011;10627;54.514;18.532;2023-04-15T03:56:58;23.10;;;15.17;;
20935;SDS011;10627;54.514;18.532;2023-04-15T04:02:19;23.20;;;15.23;;
20935;SDS011;10627;54.514;18.532;2023-04-15T04:07:40;30.80;;;15.90;;
20935;SDS011;10627;54.514;18.532;2023-04-15T04:13:01;23.73;;;15.60;;
20935;SDS011;10627;54.514;18.532;2023-04-15T04:18:22;27.87;;;15.83;;
20935;SDS011;10627;54.514;18.532;2023-04-15T04:23:43;26.30;;;16.57;;
20935;SDS011;10627;54.514;18.532;2023-04-15T04:29:04;25.07;;;15.93;;
20935;SDS011;10627;54.514;18.532;2023-04-15T04:34:25;25.30;;;15.40;;
20935;SDS011;10627;54.514;18.532;2023-04-15T04:39:46;25.50;;;16.30;;
20935;SDS011;10627;54.514;18.532;2023-04-15T04:45:07;23.13;;;14.77;;
20935;SDS011;10627;54.514;18.532;2023-04-15T04:50:28;25.87;;;16.37;;
20935;SDS011;10627;54.514;18.532;2023-04-15T04:55:49;26.70;;;15.17;;
20935;SDS011;10627;54.514;18.532;2023-04-15T05:01:11;25.80;;;15.47;;
20935;SDS011;10627;54.514;18.532;2023-04-15T05:06:32;22.83;;;15.17;;
20935;SDS011;10627;54.514;18.532;2023-04-15T05:11:55;27.73;;;15.20;;
20935;SDS011;10627;54.514;18.532;2023-04-15T05:17:16;23.57;;;15.53;;
20935;SDS011;10627;54.514;18.532;2023-04-15T05:22:37;30.80;;;16.63;;
20935;SDS011;10627;54.514;18.532;2023-04-15T05:27:57;30.47;;;17.57;;
20935;SDS011;10627;54.514;18.532;2023-04-15T05:33:18;26.07;;;15.80;;
20935;SDS011;10627;54.514;18.532;2023-04-15T05:38:39;24.57;;;15.50;;
20935;SDS011;10627;54.514;18.532;2023-04-15T05:44:00;26.27;;;14.83;;
20935;SDS011;10627;54.514;18.532;2023-04-15T05:49:21;20.90;;;14.00;;
20935;SDS011;10627;54.514;18.532;2023-04-15T05:54:42;23.90;;;14.10;;
20935;SDS011;10627;54.514;18.532;2023-04-15T06:00:03;22.53;;;14.40;;
20935;SDS011;10627;54.514;18.532;2023-04-15T06:05:30;27.57;;;13.57;;
20935;SDS011;10627;54.514;18.532;2023-04-15T06:10:51;21.23;;;13.07;;
20935;SDS011;10627;54.514;18.532;2023-04-15T06:16:11;24.50;;;14.10;;
20935;SDS011;10627;54.514;18.532;2023-04-15T06:21:32;26.30;;;13.53;;
20935;SDS011;10627;54.514;18.532;2023-04-15T06:26:53;24.57;;;13.27;;
20935;SDS011;10627;54.514;18.532;2023-04-15T06:32:14;25.00;;;14.77;;
20935;SDS011;10627;54.514;18.532;2023-04-15T06:37:35;22.03;;;13.17;;
20935;SDS011;10627;54.514;18.532;2023-04-15T06:42:56;21.43;;;12.87;;
20935;SDS011;10627;54.514;18.532;2023-04-15T06:48:17;20.57;;;12.43;;
20935;SDS011;10627;54.514;18.532;2023-04-15T06:53:38;18.73;;;12.00;;
20935;SDS011;10627;54.514;18.532;2023-04-15T06:59:00;21.23;;;11.73;;
20935;SDS011;10627;54.514;18.532;2023-04-15T07:04:21;17.70;;;11.77;;
20935;SDS011;10627;54.514;18.532;2023-04-15T07:09:42;18.13;;;11.07;;
20935;SDS011;10627;54.514;18.532;2023-04-15T07:15:03;18.77;;;11.50;;
20935;SDS011;10627;54.514;18.532;2023-04-15T07:20:24;20.30;;;11.33;;
20935;SDS011;10627;54.514;18.532;2023-04-15T07:25:45;17.70;;;11.60;;
20935;SDS011;10627;54.514;18.532;2023-04-15T07:31:06;23.07;;;11.60;;
20935;SDS011;10627;54.514;18.532;2023-04-15T07:36:30;17.37;;;11.17;;
20935;SDS011;10627;54.514;18.532;2023-04-15T07:41:51;16.73;;;10.93;;
20935;SDS011;10627;54.514;18.532;2023-04-15T07:47:12;19.97;;;11.10;;
20935;SDS011;10627;54.514;18.532;2023-04-15T07:52:32;23.03;;;11.07;;
20935;SDS011;10627;54.514;18.532;2023-04-15T07:57:58;14.23;;;10.50;;
20935;SDS011;10627;54.514;18.532;2023-04-15T08:03:20;14.50;;;9.93;;
20935;SDS011;10627;54.514;18.532;2023-04-15T08:08:41;20.70;;;9.38;;
20935;SDS011;10627;54.514;18.532;2023-04-15T08:14:02;14.60;;;9.43;;
20935;SDS011;10627;54.514;18.532;2023-04-15T08:19:23;13.75;;;8.85;;
20935;SDS011;10627;54.514;18.532;2023-04-15T08:24:44;13.38;;;9.10;;
20935;SDS011;10627;54.514;18.532;2023-04-15T08:30:05;16.10;;;8.68;;
20935;SDS011;10627;54.514;18.532;2023-04-15T08:35:26;14.30;;;9.30;;
20935;SDS011;10627;54.514;18.532;2023-04-15T08:40:47;14.43;;;8.02;;
20935;SDS011;10627;54.514;18.532;2023-04-15T08:46:08;15.05;;;8.48;;
20935;SDS011;10627;54.514;18.532;2023-04-15T08:51:28;13.98;;;9.52;;
20935;SDS011;10627;54.514;18.532;2023-04-15T08:56:50;23.80;;;9.18;;
20935;SDS011;10627;54.514;18.532;2023-04-15T09:02:11;14.80;;;8.15;;
20935;SDS011;10627;54.514;18.532;2023-04-15T09:07:33;19.38;;;9.75;;
20935;SDS011;10627;54.514;18.532;2023-04-15T09:12:55;16.30;;;9.00;;
20935;SDS011;10627;54.514;18.532;2023-04-15T09:18:29;14.20;;;9.50;;
20935;SDS011;10627;54.514;18.532;2023-04-15T09:23:56;14.25;;;9.82;;
20935;SDS011;10627;54.514;18.532;2023-04-15T09:29:17;16.88;;;10.00;;
20935;SDS011;10627;54.514;18.532;2023-04-15T09:34:38;15.75;;;9.13;;
20935;SDS011;10627;54.514;18.532;2023-04-15T09:39:59;14.55;;;9.18;;
20935;SDS011;10627;54.514;18.532;2023-04-15T09:45:20;13.40;;;8.88;;
20935;SDS011;10627;54.514;18.532;2023-04-15T09:50:42;13.30;;;9.15;;
20935;SDS011;10627;54.514;18.532;2023-04-15T09:56:03;14.43;;;9.48;;
20935;SDS011;10627;54.514;18.532;2023-04-15T10:01:27;16.30;;;11.13;;
20935;SDS011;10627;54.514;18.532;2023-04-15T10:06:48;17.48;;;10.05;;
20935;SDS011;10627;54.514;18.532;2023-04-15T10:12:09;18.33;;;10.00;;
20935;SDS011;10627;54.514;18.532;2023-04-15T10:17:31;17.65;;;9.05;;
20935;SDS011;10627;54.514;18.532;2023-04-15T10:22:54;21.92;;;8.93;;
20935;SDS011;10627;54.514;18.532;2023-04-15T10:28:16;21.70;;;9.88;;
20935;SDS011;10627;54.514;18.532;2023-04-15T10:33:37;19.63;;;10.00;;
20935;SDS011;10627;54.514;18.532;2023-04-15T10:38:59;17.65;;;9.50;;
20935;SDS011;10627;54.514;18.532;2023-04-15T10:44:19;20.47;;;10.33;;
20935;SDS011;10627;54.514;18.532;2023-04-15T10:49:51;16.27;;;10.23;;
20935;SDS011;10627;54.514;18.532;2023-04-15T10:55:18;17.50;;;10.03;;
20935;SDS011;10627;54.514;18.532;2023-04-15T11:00:40;16.67;;;9.93;;
20935;SDS011;10627;54.514;18.532;2023-04-15T11:06:10;11.00;;;8.20;;
20935;SDS011;10627;54.514;18.532;2023-04-15T11:17:29;18.33;;;9.43;;
20935;SDS011;10627;54.514;18.532;2023-04-15T11:22:51;18.47;;;9.80;;
20935;SDS011;10627;54.514;18.532;2023-04-15T11:28:13;14.43;;;9.00;;
20935;SDS011;10627;54.514;18.532;2023-04-15T11:33:34;16.17;;;9.27;;
20935;SDS011;10627;54.514;18.532;2023-04-15T11:38:56;14.87;;;8.67;;
20935;SDS011;10627;54.514;18.532;2023-04-15T11:44:17;20.50;;;9.87;;
20935;SDS011;10627;54.514;18.532;2023-04-15T11:49:38;18.93;;;9.23;;
20935;SDS011;10627;54.514;18.532;2023-04-15T11:55:02;12.67;;;8.17;;
20935;SDS011;10627;54.514;18.532;2023-04-15T12:00:23;14.13;;;8.45;;
20935;SDS011;10627;54.514;18.532;2023-04-15T12:06:03;13.82;;;8.77;;
20935;SDS011;10627;54.514;18.532;2023-04-15T12:11:35;15.23;;;10.50;;
20935;SDS011;10627;54.514;18.532;2023-04-15T12:17:01;11.82;;;7.80;;
20935;SDS011;10627;54.514;18.532;2023-04-15T12:22:24;13.80;;;8.38;;
20935;SDS011;10627;54.514;18.532;2023-04-15T12:27:49;13.98;;;8.15;;
20935;SDS011;10627;54.514;18.532;2023-04-15T12:33:11;17.02;;;7.82;;
20935;SDS011;10627;54.514;18.532;2023-04-15T12:38:32;14.13;;;8.45;;
20935;SDS011;10627;54.514;18.532;2023-04-15T12:43:53;11.27;;;7.60;;
20935;SDS011;10627;54.514;18.532;2023-04-15T12:49:14;15.30;;;8.43;;
20935;SDS011;10627;54.514;18.532;2023-04-15T12:54:35;15.73;;;7.97;;
20935;SDS011;10627;54.514;18.532;2023-04-15T12:59:56;11.77;;;8.27;;
20935;SDS011;10627;54.514;18.532;2023-04-15T13:05:17;16.65;;;8.68;;
20935;SDS011;10627;54.514;18.532;2023-04-15T13:10:38;17.90;;;8.83;;
20935;SDS011;10627;54.514;18.532;2023-04-15T13:15:59;16.25;;;8.98;;
20935;SDS011;10627;54.514;18.532;2023-04-15T13:21:20;14.67;;;8.77;;
20935;SDS011;10627;54.514;18.532;2023-04-15T13:26:41;13.40;;;8.13;;
20935;SDS011;10627;54.514;18.532;2023-04-15T13:32:02;15.00;;;8.63;;
20935;SDS011;10627;54.514;18.532;2023-04-15T13:37:27;13.93;;;8.47;;
20935;SDS011;10627;54.514;18.532;2023-04-15T13:42:50;12.70;;;8.73;;
20935;SDS011;10627;54.514;18.532;2023-04-15T13:48:11;12.13;;;7.83;;
20935;SDS011;10627;54.514;18.532;2023-04-15T13:53:32;11.10;;;7.37;;
20935;SDS011;10627;54.514;18.532;2023-04-15T13:58:53;15.73;;;8.10;;
20935;SDS011;10627;54.514;18.532;2023-04-15T14:04:18;11.70;;;8.03;;
20935;SDS011;10627;54.514;18.532;2023-04-15T14:09:39;13.67;;;8.03;;
20935;SDS011;10627;54.514;18.532;2023-04-15T14:14:59;16.13;;;8.90;;
20935;SDS011;10627;54.514;18.532;2023-04-15T14:20:21;13.77;;;8.13;;
20935;SDS011;10627;54.514;18.532;2023-04-15T14:25:42;10.63;;;7.60;;
20935;SDS011;10627;54.514;18.532;2023-04-15T14:31:03;24.33;;;8.87;;
20935;SDS011;10627;54.514;18.532;2023-04-15T14:36:24;13.07;;;8.87;;
20935;SDS011;10627;54.514;18.532;2023-04-15T14:41:45;15.80;;;8.43;;
20935;SDS011;10627;54.514;18.532;2023-04-15T14:47:06;16.30;;;8.07;;
20935;SDS011;10627;54.514;18.532;2023-04-15T14:52:27;14.33;;;9.27;;
20935;SDS011;10627;54.514;18.532;2023-04-15T14:57:48;16.43;;;8.63;;
20935;SDS011;10627;54.514;18.532;2023-04-15T15:03:09;13.07;;;8.27;;
20935;SDS011;10627;54.514;18.532;2023-04-15T15:08:34;13.43;;;8.27;;
20935;SDS011;10627;54.514;18.532;2023-04-15T15:13:56;14.97;;;8.80;;
20935;SDS011;10627;54.514;18.532;2023-04-15T15:19:17;15.23;;;8.90;;
20935;SDS011;10627;54.514;18.532;2023-04-15T15:24:38;16.47;;;9.07;;
20935;SDS011;10627;54.514;18.532;2023-04-15T15:29:59;12.33;;;8.50;;
20935;SDS011;10627;54.514;18.532;2023-04-15T15:35:20;13.83;;;8.73;;
20935;SDS011;10627;54.514;18.532;2023-04-15T15:40:42;14.93;;;8.07;;
20935;SDS011;10627;54.514;18.532;2023-04-15T15:46:03;13.37;;;7.97;;
20935;SDS011;10627;54.514;18.532;2023-04-15T15:51:25;16.97;;;9.13;;
20935;SDS011;10627;54.514;18.532;2023-04-15T15:56:47;17.93;;;8.90;;
20935;SDS011;10627;54.514;18.532;2023-04-15T16:02:11;16.48;;;8.02;;
20935;SDS011;10627;54.514;18.532;2023-04-15T16:07:33;12.93;;;7.43;;
20935;SDS011;10627;54.514;18.532;2023-04-15T16:12:55;12.63;;;8.97;;
20935;SDS011;10627;54.514;18.532;2023-04-15T16:18:16;16.63;;;8.13;;
20935;SDS011;10627;54.514;18.532;2023-04-15T16:23:37;14.13;;;9.03;;
20935;SDS011;10627;54.514;18.532;2023-04-15T16:28:58;11.30;;;7.40;;
20935;SDS011;10627;54.514;18.532;2023-04-15T16:34:19;11.57;;;7.63;;
20935;SDS011;10627;54.514;18.532;2023-04-15T16:39:40;12.47;;;7.30;;
20935;SDS011;10627;54.514;18.532;2023-04-15T17:06:06;9.80;;;6.77;;
20935;SDS011;10627;54.514;18.532;2023-04-15T17:11:27;10.10;;;6.10;;
20935;SDS011;10627;54.514;18.532;2023-04-15T17:16:48;8.83;;;5.37;;
20935;SDS011;10627;54.514;18.532;2023-04-15T17:22:09;7.77;;;5.53;;
20935;SDS011;10627;54.514;18.532;2023-04-15T17:27:30;11.37;;;6.27;;
20935;SDS011;10627;54.514;18.532;2023-04-15T17:32:51;8.97;;;5.70;;
20935;SDS011;10627;54.514;18.532;2023-04-15T17:38:12;8.47;;;5.77;;
20935;SDS011;10627;54.514;18.532;2023-04-15T17:43:33;8.63;;;5.67;;
20935;SDS011;10627;54.514;18.532;2023-04-15T17:48:54;11.40;;;7.37;;
20935;SDS011;10627;54.514;18.532;2023-04-15T17:54:15;14.00;;;7.63;;
20935;SDS011;10627;54.514;18.532;2023-04-15T17:59:36;11.37;;;7.80;;
20935;SDS011;10627;54.514;18.532;2023-04-15T18:04:57;15.53;;;7.23;;
20935;SDS011;10627;54.514;18.532;2023-04-15T18:10:18;10.83;;;6.93;;
20935;SDS011;10627;54.514;18.532;2023-04-15T18:15:40;9.87;;;6.27;;
20935;SDS011;10627;54.514;18.532;2023-04-15T18:21:01;8.50;;;6.53;;
20935;SDS011;10627;54.514;18.532;2023-04-15T18:26:22;10.40;;;7.03;;
20935;SDS011;10627;54.514;18.532;2023-04-15T18:31:43;9.37;;;6.30;;
20935;SDS011;10627;54.514;18.532;2023-04-15T18:37:04;11.93;;;7.13;;
20935;SDS011;10627;54.514;18.532;2023-04-15T18:42:25;8.80;;;5.87;;
20935;SDS011;10627;54.514;18.532;2023-04-15T18:47:45;6.77;;;5.57;;
20935;SDS011;10627;54.514;18.532;2023-04-15T18:53:07;8.00;;;4.83;;
20935;SDS011;10627;54.514;18.532;2023-04-15T18:58:28;8.17;;;4.70;;
20935;SDS011;10627;54.514;18.532;2023-04-15T19:03:49;5.77;;;4.10;;
20935;SDS011;10627;54.514;18.532;2023-04-15T19:09:10;6.10;;;4.50;;
20935;SDS011;10627;54.514;18.532;2023-04-15T19:14:31;6.90;;;4.47;;
20935;SDS011;10627;54.514;18.532;2023-04-15T19:19:52;6.07;;;3.80;;
20935;SDS011;10627;54.514;18.532;2023-04-15T19:25:13;7.83;;;3.87;;
20935;SDS011;10627;54.514;18.532;2023-04-15T19:30:34;5.30;;;4.00;;
20935;SDS011;10627;54.514;18.532;2023-04-15T19:36:05;6.13;;;4.40;;
20935;SDS011;10627;54.514;18.532;2023-04-15T19:41:06;9.50;;;4.93;;
20935;SDS011;10627;54.514;18.532;2023-04-15T19:46:09;6.07;;;4.67;;
20935;SDS011;10627;54.514;18.532;2023-04-15T19:51:12;8.57;;;5.60;;
20935;SDS011;10627;54.514;18.532;2023-04-15T19:56:13;9.37;;;5.70;;
20935;SDS011;10627;54.514;18.532;2023-04-15T20:01:13;10.37;;;6.07;;
20935;SDS011;10627;54.514;18.532;2023-04-15T20:06:14;10.70;;;6.40;;
20935;SDS011;10627;54.514;18.532;2023-04-15T20:11:15;10.97;;;6.73;;
20935;SDS011;10627;54.514;18.532;2023-04-15T20:16:16;10.07;;;7.40;;
20935;SDS011;10627;54.514;18.532;2023-04-15T20:21:17;10.80;;;7.53;;
20935;SDS011;10627;54.514;18.532;2023-04-15T20:26:17;11.27;;;7.83;;
20935;SDS011;10627;54.514;18.532;2023-04-15T20:31:19;11.70;;;7.40;;
20935;SDS011;10627;54.514;18.532;2023-04-15T20:36:21;13.27;;;8.07;;
20935;SDS011;10627;54.514;18.532;2023-04-15T20:41:21;11.77;;;7.13;;
20935;SDS011;10627;54.514;18.532;2023-04-15T20:46:22;12.40;;;7.63;;
20935;SDS011;10627;54.514;18.532;2023-04-15T20:51:23;10.87;;;7.60;;
20935;SDS011;10627;54.514;18.532;2023-04-15T20:56:24;10.47;;;7.20;;
20935;SDS011;10627;54.514;18.532;2023-04-15T21:01:25;12.00;;;7.30;;
20935;SDS011;10627;54.514;18.532;2023-04-15T21:06:25;11.37;;;7.47;;
20935;SDS011;10627;54.514;18.532;2023-04-15T21:11:27;10.73;;;7.57;;
20935;SDS011;10627;54.514;18.532;2023-04-15T21:16:28;14.43;;;7.70;;
20935;SDS011;10627;54.514;18.532;2023-04-15T21:21:30;16.13;;;7.77;;
20935;SDS011;10627;54.514;18.532;2023-04-15T21:26:32;10.93;;;7.07;;
20935;SDS011;10627;54.514;18.532;2023-04-15T21:31:33;12.50;;;7.93;;
20935;SDS011;10627;54.514;18.532;2023-04-15T21:36:34;13.67;;;8.23;;
20935;SDS011;10627;54.514;18.532;2023-04-15T21:41:36;15.70;;;7.90;;
20935;SDS011;10627;54.514;18.532;2023-04-15T21:46:37;11.93;;;7.73;;
20935;SDS011;10627;54.514;18.532;2023-04-15T21:51:38;10.47;;;7.13;;
20935;SDS011;10627;54.514;18.532;2023-04-15T21:56:39;9.50;;;6.43;;
20935;SDS011;10627;54.514;18.532;2023-04-15T22:01:40;11.77;;;7.07;;
20935;SDS011;10627;54.514;18.532;2023-04-15T22:06:41;12.83;;;8.70;;
20935;SDS011;10627;54.514;18.532;2023-04-15T22:11:42;21.53;;;9.40;;
20935;SDS011;10627;54.514;18.532;2023-04-15T22:16:43;11.70;;;7.43;;
20935;SDS011;10627;54.514;18.532;2023-04-15T22:21:44;10.80;;;7.40;;
20935;SDS011;10627;54.514;18.532;2023-04-15T22:26:45;11.30;;;8.27;;
20935;SDS011;10627;54.514;18.532;2023-04-15T22:31:45;12.80;;;8.07;;
20935;SDS011;10627;54.514;18.532;2023-04-15T22:36:46;14.40;;;8.30;;
20935;SDS011;10627;54.514;18.532;2023-04-15T22:41:48;13.00;;;8.20;;
20935;SDS011;10627;54.514;18.532;2023-04-15T22:46:49;13.70;;;7.20;;
20935;SDS011;10627;54.514;18.532;2023-04-15T22:51:51;11.87;;;7.67;;
20935;SDS011;10627;54.514;18.532;2023-04-15T22:56:51;9.57;;;6.70;;
20935;SDS011;10627;54.514;18.532;2023-04-15T23:01:52;8.80;;;5.97;;
20935;SDS011;10627;54.514;18.532;2023-04-15T23:06:53;8.33;;;6.00;;
20935;SDS011;10627;54.514;18.532;2023-04-15T23:11:54;12.30;;;6.50;;
20935;SDS011;10627;54.514;18.532;2023-04-15T23:16:56;7.17;;;5.40;;
20935;SDS011;10627;54.514;18.532;2023-04-15T23:21:57;8.80;;;5.83;;
20935;SDS011;10627;54.514;18.532;2023-04-15T23:26:57;6.60;;;4.77;;
20935;SDS011;10627;54.514;18.532;2023-04-15T23:31:58;6.60;;;4.50;;
20935;SDS011;10627;54.514;18.532;2023-04-15T23:36:59;7.70;;;5.03;;
20935;SDS011;10627;54.514;18.532;2023-04-15T23:42:00;7.33;;;4.80;;
20935;SDS011;10627;54.514;18.532;2023-04-15T23:47:00;7.03;;;4.73;;
20935;SDS011;10627;54.514;18.532;2023-04-15T23:52:01;5.07;;;4.30;;
20935;SDS011;10627;54.514;18.532;2023-04-15T23:57:02;8.33;;;4.97;;
